Brownfield, ME (04010)

4:59 AM EDT on March 30, 2017 (GMT -0400)
misty lane | | Change Station
Active Advisory: Winter Storm Watch

Elev 404 ft 43.94 °N, 70.87 °W | Updated 12 minutes ago

Partly Cloudy
Partly Cloudy
34.3 °F
Feels Like 34 °F
N
0.0
Wind Variable Wind from NNE
Gusts 8.0 mph

Today
High -- | Low -- °F
--% Chance of Precip.
Yesterday
High -- | Low -- °F
Precip. -- in
Pressure 30.16 in
Visibility 10.0 miles
Clouds Scattered Clouds 4500 ft
Windchill 34 °F
Dew Point 22 °F
Humidity 60%
Rainfall 0.00 in
Snow Depth Not available.
6:28 AM 7:08 PM
Waxing Crescent, 7% visible
METAR KIZG 300854Z AUTO 35010G19KT 10SM SCT045 00/M08 A3014 RMK AO2 SLP213 T00001078 53002
Pressure 30.16 in
Visibility 10.0 miles
Clouds Scattered Clouds 4500 ft
Windchill 34 °F
Dew Point 22 °F
Humidity 60%
Rainfall 0.00 in
Snow Depth Not available.
6:28 AM 7:08 PM
Waxing Crescent, 7% visible
METAR KIZG 300854Z AUTO 35010G19KT 10SM SCT045 00/M08 A3014 RMK AO2 SLP213 T00001078 53002

Get Your Daily Forecast Email!

Thanks for signing up!

Be on the lookout for a verification email in your inbox.

You'll start receiving severe weather alerts in your inbox..

×

10-Day Weather Forecast

Almanac

Astronomy

Mar. 30, 2017 Rise Set
Actual Time
Civil Twilight
Nautical Twilight
Astronomical Twilight
Moon
Length of Visible Light
Length of Day
Tomorrow will be .
, % of the Moon is Illuminated

Today's Extremes

State Highs State Lows

Community

WunderPhotos

Upload Photos

1,962,540 photos uploaded!

WunderBlog® & News

Nearby

Air Quality

  Air Quality AQ Index Pollutant
Not available.

Snow Depth

Station Depth Elevation

Earthquake Activity

City Distance Mag. Time & Date
Minimum magnitude displayed is 2.5.

Earthquake Activity

City Distance Mag. Time & Date
Minimum magnitude displayed is 2.5.

Coastal Water Temperatures

Place Temperature

Stations

Nearby Weather Stations

Station Location Temp. Windchill Dew Point Humidity Wind Precip. Elev Updated Type
                   

Watches & Warnings

Winter Storm Watch
Issued: 3:58 AM EDT Mar. 30, 2017 – National Weather Service

... Winter Storm Watch in effect from Friday afternoon through
Saturday afternoon...

The National Weather Service in gray has issued a Winter Storm
Watch... which is in effect from Friday afternoon through Saturday
afternoon.

* Hazard types... heavy snow possible.

* Accumulations... snow accumulation of 4 to 7 inches possible.

* Timing... the snow will begin Friday afternoon in Maine the snow
will increase in intensity Friday evening and overnight before
ending around midday Saturday.

* Impacts... slippery roads and low visibilities.

* Winds... east 5 to 10 mph with gusts up to 20 mph.

* Temperatures... in the lower 30s.

* Visibilities... one quarter to one half mile at times.

Precautionary/preparedness actions...

A Winter Storm Watch means there is a potential for significant
snow... sleet... or ice accumulations that may impact travel.
Continue to monitor the latest forecasts.